This is the latest recevied weather packets stored in our database for station/object JA0BES-13. If no packets are shown the sender has not sent any weather packets the latest 10 day(s).
| Time | Temp. | Humidity | Pressure | Rain* | Wind** | Luminosity | Snow |
|---|---|---|---|---|---|---|---|
| 1777772594 | 21.11° C | 56% | 1007.6 hPa | 0 mm | - | - | - |
| 1777770793 | 18.33° C | 78% | 1007.8 hPa | 0 mm | - | - | - |
| 1777767791 | 15.56° C | 89% | 1009.4 hPa | 0 mm | - | - | - |
| 1777767191 | 15° C | 91% | 1009.6 hPa | 0 mm | - | - | - |
| 1777766590 | 14.44° C | 91% | 1009.7 hPa | 0 mm | - | - | - |
| 1777765389 | 13.89° C | 94% | 1010 hPa | 0 mm | - | - | - |
| 1777764189 | 13.33° C | 95% | 1010.4 hPa | 0 mm | - | - | - |
| 1777758786 | 12.22° C | 97% | 1011.4 hPa | 0 mm | - | - | - |
| 1777726367 | 14.44° C | 78% | 1011.4 hPa | 3.3 mm | - | - | - |
| 1777725166 | 15° C | 76% | 1011.3 hPa | 3.3 mm | - | - | - |
| 1777723965 | 15.56° C | 74% | 1011.4 hPa | 3.3 mm | - | - | - |
| 1777723365 | 15.56° C | 74% | 1011.3 hPa | 3.3 mm | - | - | - |
| 1777722764 | 16.11° C | 73% | 1011.1 hPa | 3.3 mm | - | - | - |
| 1777722164 | 16.11° C | 73% | 1011 hPa | 3.3 mm | - | - | - |
| 1777721564 | 16.11° C | 71% | 1010.7 hPa | 3.3 mm | - | - | - |
| 1777720963 | 16.67° C | 71% | 1010.5 hPa | 3.3 mm | - | - | - |
| 1777720363 | 16.67° C | 70% | 1010.4 hPa | 3.3 mm | - | - | - |
| 1777719762 | 16.67° C | 70% | 1010.2 hPa | 3.3 mm | - | - | - |
| 1777719162 | 17.22° C | 69% | 1010.2 hPa | 3.3 mm | - | - | - |
| 1777718562 | 17.22° C | 68% | 1010 hPa | 3.3 mm | - | - | - |
| 1777717962 | 17.78° C | 67% | 1010 hPa | 3.3 mm | - | - | - |
| 1777717361 | 17.78° C | 65% | 1009.8 hPa | 3.3 mm | - | - | - |
| 1777716761 | 17.78° C | 65% | 1009.6 hPa | 3.3 mm | - | - | - |
| 1777716160 | 18.33° C | 63% | 1009.6 hPa | 3.3 mm | - | - | - |
| 1777715560 | 18.33° C | 62% | 1009.2 hPa | 3.3 mm | - | - | - |
* Rain since midnight (hover to see other rain measurements)
** Current wind speed in m/s (hover to see current wind gust speed)